Dayton, Maine
Current Conditions -  °F | °C
As of 9:35 AM on Wednesday 22 Oct 2014 (Local Time) from KSFM Reporting Station
Overcast Overcast  
Wind Chill: 40°   Ceiling: 800
Heat Index: 46°   Visibility: 2.5mi
Dew Point: 43°   Wind: 16mph
Humidity: 87%   Direction: 20°NNE
Pressure: 30.11"   Gusts: 22mph
Location:  43.4906°N, 70.5283°W
Report Text: KSFM 221335Z AUTO 02014G19KT 2 1/2SM BKN008 OVC015 08/06 A3011 RMK AO1 P0004
Loading
Personal Weather Stations






























Interactive Weather Map
Tropical Storm Tracking
New forecast layout! Learn more

10-Day Weather Forecast

Advertisements
Track Severe Weather on mobile